Time;durP1;ratioP1;P1;durP2;ratioP2;P2;SDS_P1;SDS_P2;PMS_P1;PMS_P2;Temp;Humidity;BMP_temperature;BMP_pressure;BME280_temperature;BME280_humidity;BME280_pressure;Samples;Min_cycle;Max_cycle;Signal;HPM_P1;HPM_P2
2021/05/21 00:02:07;;;;;;;27.80;21.57;;;;;;;8.51;75.74;99026.13;124676;1105;64381;-79
2021/05/21 00:04:34;;;;;;;28.10;21.70;;;;;;;8.49;75.72;99027.17;124442;1100;64281;-79
2021/05/21 00:07:01;;;;;;;24.47;20.73;;;;;;;8.46;75.69;99028.20;124439;1099;64395;-79
2021/05/21 00:09:29;;;;;;;24.35;20.45;;;;;;;8.44;75.60;99024.77;124639;1098;64346;-79
2021/05/21 00:11:56;;;;;;;24.53;20.10;;;;;;;8.42;75.54;99020.48;124698;1099;64330;-79
2021/05/21 00:14:24;;;;;;;26.83;21.37;;;;;;;8.40;75.77;99020.59;124513;1099;64366;-79
2021/05/21 00:16:53;;;;;;;22.50;18.30;;;;;;;8.38;75.72;99017.14;124491;1100;64303;-79
2021/05/21 00:19:20;;;;;;;22.75;19.45;;;;;;;8.33;75.88;99012.08;124429;1104;64412;-79
2021/05/21 00:21:47;;;;;;;25.23;20.17;;;;;;;8.31;75.92;99021.92;124493;1100;64253;-80
2021/05/21 00:24:15;;;;;;;24.97;20.13;;;;;;;8.27;75.85;99017.75;124493;1104;64345;-79
2021/05/21 00:26:42;;;;;;;27.43;20.13;;;;;;;8.24;75.80;99025.02;124471;1104;64443;-79
2021/05/21 00:29:09;;;;;;;24.97;22.10;;;;;;;8.20;75.97;99021.69;124479;1104;64387;-79
2021/05/21 00:31:36;;;;;;;27.37;21.27;;;;;;;8.13;75.95;99015.86;124478;1104;64400;-79
2021/05/21 00:34:03;;;;;;;25.37;21.77;;;;;;;8.08;76.13;99015.30;124476;1099;64419;-79
2021/05/21 00:36:31;;;;;;;30.07;25.87;;;;;;;8.05;76.24;99011.94;124474;1104;64336;-79
2021/05/21 00:38:58;;;;;;;25.80;22.00;;;;;;;8.02;76.11;99009.45;124490;1100;64374;-80
2021/05/21 00:41:26;;;;;;;26.93;23.87;;;;;;;8.01;76.22;99016.57;124472;1099;64329;-80
2021/05/21 00:43:55;;;;;;;24.83;21.30;;;;;;;7.97;76.38;99014.17;124450;1104;64403;-80
2021/05/21 00:46:22;;;;;;;28.53;23.70;;;;;;;7.96;76.37;99017.77;124501;1104;64365;-80
2021/05/21 00:48:50;;;;;;;26.57;23.47;;;;;;;7.93;76.38;99016.15;124507;1104;64281;-80
2021/05/21 00:51:17;;;;;;;28.87;24.50;;;;;;;7.89;76.44;99018.09;124502;1104;64333;-80
2021/05/21 00:53:46;;;;;;;32.00;27.23;;;;;;;7.85;76.39;99015.72;124441;1104;64207;-80
2021/05/21 00:56:13;;;;;;;33.27;27.20;;;;;;;7.81;76.72;99011.52;124531;1098;64275;-80
2021/05/21 00:58:40;;;;;;;32.10;24.13;;;;;;;7.78;76.83;99015.19;124464;1104;64381;-80
2021/05/21 01:01:07;;;;;;;27.33;23.23;;;;;;;7.77;76.83;99015.30;124459;1099;64358;-79
2021/05/21 01:03:39;;;;;;;24.10;20.43;;;;;;;7.75;76.97;99014.52;124478;1104;64333;-79
2021/05/21 01:06:07;;;;;;;26.35;21.60;;;;;;;7.73;76.78;99014.58;124521;1104;64387;-79
2021/05/21 01:08:35;;;;;;;25.85;21.50;;;;;;;7.75;76.88;99010.05;124576;1104;64333;-79
2021/05/21 01:11:05;;;;;;;25.67;22.13;;;;;;;7.77;77.14;99013.48;124472;1099;64405;-79
2021/05/21 01:13:34;;;;;;;28.88;23.25;;;;;;;7.75;77.10;99007.41;124683;1100;64313;-79
2021/05/21 01:16:02;;;;;;;29.53;23.53;;;;;;;7.77;77.29;99000.22;124477;1104;64355;-79
2021/05/21 01:18:29;;;;;;;29.33;26.20;;;;;;;7.75;77.07;99006.55;124545;1099;64336;-79
2021/05/21 01:20:57;;;;;;;28.50;24.33;;;;;;;7.69;77.07;99005.10;124455;1105;64440;-79
2021/05/21 01:23:25;;;;;;;28.17;22.23;;;;;;;7.61;77.09;98997.56;124536;1099;64438;-79
2021/05/21 01:25:52;;;;;;;23.87;19.77;;;;;;;7.55;77.10;98997.02;124495;1105;64291;-80
2021/05/21 01:28:20;;;;;;;24.77;20.80;;;;;;;7.51;77.19;98995.50;124493;1100;64269;-79
2021/05/21 01:30:49;;;;;;;27.43;22.13;;;;;;;7.48;77.19;98992.06;124501;1100;64349;-79
2021/05/21 01:33:17;;;;;;;27.03;21.63;;;;;;;7.46;77.25;98996.59;124450;1099;64345;-79
2021/05/21 01:35:45;;;;;;;25.40;22.20;;;;;;;7.40;77.13;98990.78;124525;1099;64336;-79
2021/05/21 01:38:13;;;;;;;26.10;22.00;;;;;;;7.37;77.30;98988.27;124471;1100;64427;-79
2021/05/21 01:40:43;;;;;;;24.73;21.07;;;;;;;7.32;77.26;98985.00;124557;1104;64314;-80
2021/05/21 01:43:12;;;;;;;31.63;25.97;;;;;;;7.27;77.29;98982.63;124517;1104;64364;-79
2021/05/21 01:45:40;;;;;;;26.87;23.63;;;;;;;7.21;77.39;98977.63;124495;1104;64432;-80
2021/05/21 01:48:10;;;;;;;29.30;23.13;;;;;;;7.19;77.49;98982.18;124535;1104;64348;-80
2021/05/21 01:50:37;;;;;;;;;;;;;;;7.16;77.62;98979.67;124525;1105;65567;-80
2021/05/21 01:53:05;;;;;;;29.73;22.57;;;;;;;7.15;77.63;98977.97;124495;1100;65577;-79
2021/05/21 01:55:33;;;;;;;27.55;22.30;;;;;;;7.16;77.64;98971.72;124575;1105;64355;-79
2021/05/21 01:58:01;;;;;;;26.35;22.15;;;;;;;7.17;77.78;98973.45;124541;1104;64923;-80
2021/05/21 02:00:28;;;;;;;30.47;24.23;;;;;;;7.16;77.66;98979.67;124490;1100;64428;-80
2021/05/21 02:02:55;;;;;;;25.30;22.60;;;;;;;7.15;77.50;98977.97;124618;1099;64305;-80
2021/05/21 02:05:23;;;;;;;30.07;25.63;;;;;;;7.12;78.06;98972.84;124577;1098;64342;-80
2021/05/21 02:07:50;;;;;;;32.25;25.75;;;;;;;7.08;78.05;98976.57;124648;1099;64388;-80
2021/05/21 02:10:17;;;;;;;31.83;24.17;;;;;;;7.07;78.35;98975.72;124628;1099;64435;-80
2021/05/21 02:12:45;;;;;;;29.33;24.37;;;;;;;7.06;78.45;98975.79;124607;1099;64406;-80
2021/05/21 02:15:14;;;;;;;27.60;22.85;;;;;;;7.02;78.49;98977.75;124534;1104;64346;-80
2021/05/21 02:17:41;;;;;;;28.60;23.05;;;;;;;7.00;78.46;98976.97;124602;1100;64364;-80
2021/05/21 02:20:10;;;;;;;28.47;21.90;;;;;;;7.01;78.88;98973.41;124552;1099;64345;-80
2021/05/21 02:22:39;;;;;;;27.73;22.50;;;;;;;7.07;78.71;98981.02;124485;1104;64261;-80
2021/05/21 02:25:08;;;;;;;29.95;24.00;;;;;;;7.12;78.86;98972.84;124486;1104;64332;-80
2021/05/21 02:27:36;;;;;;;27.83;24.77;;;;;;;7.14;78.93;98979.77;124558;1104;64377;-80
2021/05/21 02:30:05;;;;;;;35.65;28.65;;;;;;;7.12;78.83;98972.84;124480;1100;64325;-79
2021/05/21 02:32:32;;;;;;;28.00;25.03;;;;;;;7.11;78.66;98971.98;124532;1100;64362;-79
2021/05/21 02:34:59;;;;;;;39.10;25.47;;;;;;;7.11;78.72;98973.75;124436;1104;64422;-79
2021/05/21 02:37:27;;;;;;;30.63;23.87;;;;;;;7.10;78.61;98969.41;124473;1105;64805;-79
2021/05/21 02:39:54;;;;;;;24.97;22.33;;;;;;;7.11;78.43;98973.75;124484;1098;64398;-79
2021/05/21 02:42:22;;;;;;;27.23;24.00;;;;;;;7.12;78.44;98975.48;124548;1099;64248;-79
2021/05/21 02:44:49;;;;;;;25.67;21.73;;;;;;;7.11;78.53;98971.98;124571;1104;64281;-79
2021/05/21 02:47:16;;;;;;;23.80;21.30;;;;;;;7.09;78.50;98968.55;124462;1099;64396;-78
2021/05/21 02:49:44;;;;;;;24.45;22.00;;;;;;;7.07;78.49;98972.22;124603;1098;64282;-80
2021/05/21 02:52:11;;;;;;;26.30;23.67;;;;;;;7.07;78.66;98962.47;124657;1104;64259;-80
2021/05/21 02:54:38;;;;;;;26.75;23.15;;;;;;;7.07;78.72;98956.33;124542;1104;64315;-80
2021/05/21 02:57:05;;;;;;;28.87;22.63;;;;;;;7.07;78.66;98962.47;124515;1099;64336;-80
2021/05/21 02:59:33;;;;;;;26.53;21.93;;;;;;;7.11;78.62;98957.86;124400;1104;64362;-80
2021/05/21 03:02:00;;;;;;;26.10;23.03;;;;;;;7.20;78.78;98952.08;124487;1100;64349;-79
2021/05/21 03:04:28;;;;;;;24.10;21.53;;;;;;;7.27;78.60;98953.47;124421;1100;64364;-79
2021/05/21 03:06:55;;;;;;;27.93;23.53;;;;;;;7.28;78.74;98949.02;124507;1104;64332;-80
2021/05/21 03:09:22;;;;;;;27.13;23.70;;;;;;;7.32;78.54;98954.08;124487;1100;64336;-79
2021/05/21 03:11:49;;;;;;;27.03;23.80;;;;;;;7.32;78.54;98954.08;124457;1104;64339;-80
2021/05/21 03:14:18;;;;;;;28.90;23.30;;;;;;;7.33;78.44;98955.77;124511;1098;64355;-80
2021/05/21 03:16:45;;;;;;;25.80;21.93;;;;;;;7.34;78.35;98946.87;124471;1099;64371;-80
2021/05/21 03:19:13;;;;;;;24.60;21.65;;;;;;;7.37;78.24;98954.69;124492;1099;64336;-80
2021/05/21 03:21:40;;;;;;;23.30;20.80;;;;;;;7.43;77.97;98953.48;124468;1105;64352;-77
2021/05/21 03:24:08;;;;;;;22.10;19.80;;;;;;;7.63;77.81;98949.72;124463;1099;64483;-80
2021/05/21 03:26:35;;;;;;;23.00;20.33;;;;;;;7.90;77.54;98958.80;124467;1105;64360;-80
2021/05/21 03:29:03;;;;;;;22.57;20.03;;;;;;;8.17;76.83;98947.55;124521;1105;64794;-80
2021/05/21 03:31:30;;;;;;;21.13;18.97;;;;;;;8.24;76.87;98945.37;124531;1098;64336;-80
2021/05/21 03:33:57;;;;;;;26.60;22.00;;;;;;;8.18;76.66;98946.59;124455;1105;64339;-80
2021/05/21 03:36:25;;;;;;;23.40;21.00;;;;;;;8.13;76.72;98943.34;124511;1104;64432;-80
2021/05/21 03:38:52;;;;;;;25.30;22.70;;;;;;;8.13;76.64;98949.50;124551;1104;64358;-79
2021/05/21 03:41:20;;;;;;;26.67;23.20;;;;;;;8.20;76.50;98951.82;124497;1098;64329;-78
2021/05/21 03:43:47;;;;;;;27.13;23.50;;;;;;;8.28;76.59;98944.27;124443;1104;64458;-78
2021/05/21 03:46:15;;;;;;;30.83;22.57;;;;;;;8.38;76.34;98945.44;124458;1105;64469;-79
2021/05/21 03:48:43;;;;;;;26.73;20.70;;;;;;;8.50;76.25;98936.76;124456;1104;64354;-79
2021/05/21 03:51:10;;;;;;;27.40;22.30;;;;;;;8.86;76.14;98942.63;124491;1104;64349;-79
2021/05/21 03:53:37;;;;;;;25.03;21.87;;;;;;;9.68;75.01;98933.93;124498;1099;64342;-79
2021/05/21 03:56:05;;;;;;;26.97;22.30;;;;;;;10.29;73.89;98929.97;124480;1098;64289;-79
2021/05/21 03:58:35;;;;;;;26.03;23.23;;;;;;;10.94;72.92;98933.56;124483;1104;64422;-79
2021/05/21 04:01:03;;;;;;;27.63;24.93;;;;;;;11.77;71.41;98923.19;124492;1100;64396;-79
2021/05/21 04:03:31;;;;;;;31.73;28.63;;;;;;;12.43;70.18;98923.66;124502;1098;64339;-79
2021/05/21 04:05:58;;;;;;;30.33;27.23;;;;;;;12.81;69.40;98922.54;124472;1105;64341;-79
2021/05/21 04:08:28;;;;;;;29.80;26.67;;;;;;;13.05;68.81;98916.25;124460;1104;65508;-79
2021/05/21 04:10:55;;;;;;;27.40;24.65;;;;;;;13.50;68.53;98914.45;124518;1105;64348;-79
2021/05/21 04:13:22;;;;;;;27.37;24.43;;;;;;;13.94;67.17;98923.39;124485;1104;64480;-79
2021/05/21 04:15:50;;;;;;;28.97;25.97;;;;;;;14.62;66.21;98923.17;124469;1099;64406;-79
2021/05/21 04:18:17;;;;;;;28.53;25.43;;;;;;;15.31;64.74;98922.58;124476;1100;64348;-79
2021/05/21 04:20:44;;;;;;;26.50;23.97;;;;;;;15.74;63.92;98916.95;124510;1105;64299;-79
2021/05/21 04:23:11;;;;;;;26.30;23.80;;;;;;;16.20;62.95;98912.80;124473;1105;64335;-79
2021/05/21 04:25:39;;;;;;;23.30;21.20;;;;;;;16.59;63.08;98912.81;124478;1099;64489;-79
2021/05/21 04:28:06;;;;;;;22.07;20.00;;;;;;;16.08;62.74;98910.38;124478;1100;64361;-78
2021/05/21 04:30:33;;;;;;;20.90;19.00;;;;;;;16.12;62.57;98917.19;124496;1104;64316;-79
2021/05/21 04:33:02;;;;;;;21.63;17.53;;;;;;;16.68;61.13;98911.09;124478;1098;64702;-79
2021/05/21 04:35:29;;;;;;;19.23;17.23;;;;;;;17.42;60.11;98902.27;124503;1104;64256;-79
2021/05/21 04:37:56;;;;;;;19.40;17.57;;;;;;;18.04;58.92;98902.53;124450;1099;64345;-80
2021/05/21 04:40:24;;;;;;;17.33;15.77;;;;;;;18.52;57.78;98906.70;124491;1105;64371;-79
2021/05/21 04:42:51;;;;;;;17.33;15.63;;;;;;;19.02;57.61;98897.15;124547;1098;64336;-79
2021/05/21 04:45:18;;;;;;;16.07;14.60;;;;;;;19.32;56.36;98905.75;124645;1099;64331;-78
2021/05/21 04:47:46;;;;;;;16.20;14.80;;;;;;;19.65;55.73;98912.17;124491;1104;64259;-78
2021/05/21 04:50:13;;;;;;;16.07;14.47;;;;;;;19.94;54.59;98909.94;124481;1099;64291;-79
2021/05/21 04:52:41;;;;;;;14.80;13.50;;;;;;;20.03;53.68;98905.39;124662;1104;64447;-79
2021/05/21 04:55:09;;;;;;;14.60;13.30;;;;;;;19.93;53.64;98910.97;124658;1104;64457;-78
2021/05/21 04:57:36;;;;;;;14.93;13.63;;;;;;;19.65;53.44;98902.20;124666;1105;64339;-78
2021/05/21 05:00:04;;;;;;;16.73;15.10;;;;;;;20.01;53.79;98898.45;124599;1098;64454;-80
2021/05/21 05:02:32;;;;;;;17.60;13.80;;;;;;;20.39;52.71;98903.26;124681;1105;64347;-79
2021/05/21 05:04:59;;;;;;;15.60;13.20;;;;;;;20.28;52.52;98898.18;124563;1100;64337;-79
2021/05/21 05:07:26;;;;;;;13.80;12.40;;;;;;;20.25;52.36;98903.06;124519;1104;64346;-79
2021/05/21 05:09:53;;;;;;;12.07;11.03;;;;;;;20.29;52.28;98896.31;124559;1099;64329;-78
2021/05/21 05:12:21;;;;;;;13.73;12.17;;;;;;;20.14;51.87;98893.41;124458;1104;64336;-78
2021/05/21 05:14:48;;;;;;;11.87;10.73;;;;;;;19.75;52.22;98899.41;124479;1104;64392;-79
2021/05/21 05:17:15;;;;;;;8.73;7.90;;;;;;;19.28;51.91;98897.98;124480;1104;64512;-78
2021/05/21 05:19:43;;;;;;;9.10;8.20;;;;;;;19.36;52.31;98899.88;124488;1104;64428;-78
2021/05/21 05:22:11;;;;;;;10.30;8.50;;;;;;;19.60;51.79;98892.89;124458;1100;64333;-79
2021/05/21 05:24:39;;;;;;;9.47;8.60;;;;;;;19.55;51.47;98885.27;124531;1100;64332;-79
2021/05/21 05:27:07;;;;;;;9.17;8.23;;;;;;;19.43;52.08;98892.83;124508;1098;64368;-79
2021/05/21 05:29:36;;;;;;;8.10;7.30;;;;;;;19.45;51.51;98888.08;124476;1098;64489;-79
2021/05/21 05:32:04;;;;;;;8.57;7.73;;;;;;;19.40;51.81;98887.72;124446;1105;64346;-80
2021/05/21 05:34:31;;;;;;;9.43;7.40;;;;;;;19.26;51.96;98889.17;124519;1098;64368;-78
2021/05/21 05:36:58;;;;;;;7.10;6.43;;;;;;;19.11;51.72;98893.47;124513;1104;64336;-78
2021/05/21 05:39:26;;;;;;;8.35;6.80;;;;;;;18.90;52.40;98887.61;124473;1100;64422;-78
2021/05/21 05:41:53;;;;;;;7.17;6.43;;;;;;;18.83;52.01;98885.55;124478;1104;64342;-79
2021/05/21 05:44:20;;;;;;;7.00;6.30;;;;;;;18.82;51.92;98881.13;124500;1098;64841;-78
2021/05/21 05:46:48;;;;;;;6.80;6.20;;;;;;;18.65;51.94;98885.55;124492;1104;64319;-77
2021/05/21 05:49:15;;;;;;;7.10;6.50;;;;;;;18.71;52.37;98885.92;124630;1098;64313;-78
2021/05/21 05:51:43;;;;;;;6.85;6.15;;;;;;;19.16;51.61;98879.50;124554;1099;64346;-77
2021/05/21 05:54:10;;;;;;;7.73;6.23;;;;;;;19.33;50.96;98883.15;124568;1100;64426;-78
2021/05/21 05:56:37;;;;;;;7.47;6.63;;;;;;;19.10;51.79;98890.95;124519;1104;64309;-78
2021/05/21 05:59:05;;;;;;;7.67;6.27;;;;;;;18.84;52.01;98883.69;124497;1105;64352;-78
2021/05/21 06:01:32;;;;;;;6.90;5.87;;;;;;;18.76;51.76;98886.33;124442;1105;64805;-80
2021/05/21 06:03:59;;;;;;;8.95;6.50;;;;;;;18.56;51.54;98886.50;124437;1104;64268;-78
2021/05/21 06:06:26;;;;;;;7.93;5.90;;;;;;;18.57;51.93;98876.55;124492;1104;64620;-77
2021/05/21 06:08:53;;;;;;;6.40;5.70;;;;;;;18.82;51.48;98880.29;124469;1104;64336;-78
2021/05/21 06:11:21;;;;;;;8.20;6.63;;;;;;;18.55;52.50;98881.24;124490;1104;64352;-78
2021/05/21 06:13:48;;;;;;;7.77;6.60;;;;;;;18.59;52.13;98878.08;124478;1100;64361;-80
2021/05/21 06:16:15;;;;;;;7.07;6.37;;;;;;;18.81;51.58;98870.51;124464;1104;64342;-81
2021/05/21 06:18:43;;;;;;;14.33;7.70;;;;;;;18.72;51.16;98874.11;124585;1099;64336;-81
2021/05/21 06:21:10;;;;;;;9.90;7.10;;;;;;;18.78;51.42;98863.57;124460;1104;64348;-81
2021/05/21 06:23:38;;;;;;;7.23;6.47;;;;;;;19.10;51.05;98870.19;124616;1100;64325;-80
2021/05/21 06:28:54;;;;;;;11.43;5.93;;;;;;;19.52;50.73;98859.41;124467;1105;64341;-79
2021/05/21 06:31:22;;;;;;;8.03;6.20;;;;;;;19.59;50.42;98856.91;124466;1104;64827;-78
2021/05/21 06:33:49;;;;;;;5.70;5.20;;;;;;;19.40;49.81;98849.88;124498;1100;64365;-77
2021/05/21 06:36:17;;;;;;;5.47;4.90;;;;;;;19.46;49.90;98841.14;124503;1100;64313;-78
2021/05/21 06:38:44;;;;;;;5.60;4.50;;;;;;;19.68;49.23;98841.58;124493;1099;64375;-78
2021/05/21 06:41:11;;;;;;;9.67;5.10;;;;;;;19.62;49.20;98851.17;124432;1099;64339;-78
2021/05/21 06:43:39;;;;;;;8.60;5.03;;;;;;;20.06;49.52;98844.69;124499;1099;64512;-79
2021/05/21 06:46:06;;;;;;;5.27;4.30;;;;;;;20.45;48.92;98834.06;124467;1099;64374;-79
2021/05/21 06:48:33;;;;;;;6.97;4.60;;;;;;;20.70;48.42;98831.38;124463;1100;64399;-80
2021/05/21 06:51:03;;;;;;;5.60;4.85;;;;;;;20.74;48.14;98827.30;124497;1105;64435;-78
2021/05/21 06:53:31;;;;;;;5.80;4.70;;;;;;;20.69;48.41;98821.55;124479;1104;64463;-78
2021/05/21 06:55:59;;;;;;;4.80;3.87;;;;;;;20.71;47.46;98814.11;124509;1100;64460;-77
2021/05/21 06:58:27;;;;;;;4.73;3.97;;;;;;;20.68;47.58;98819.88;124452;1100;64309;-77
2021/05/21 07:00:58;;;;;;;5.63;3.83;;;;;;;20.51;47.17;98822.57;124540;1104;64259;-77
2021/05/21 07:03:31;;;;;;;7.17;3.80;;;;;;;20.26;47.06;98815.47;124492;1105;64253;-76
2021/05/21 07:05:59;;;;;;;4.10;3.40;;;;;;;19.81;46.61;98811.36;124467;1104;64358;-77
2021/05/21 07:08:26;;;;;;;4.93;3.60;;;;;;;19.69;47.68;98811.66;124473;1099;64434;-77
2021/05/21 07:10:54;;;;;;;3.45;2.70;;;;;;;19.72;46.98;98816.76;124474;1098;64361;-77
2021/05/21 07:13:22;;;;;;;3.50;3.20;;;;;;;19.85;47.32;98807.30;124485;1105;64446;-77
2021/05/21 07:15:49;;;;;;;2.43;1.80;;;;;;;19.72;47.24;98805.07;124488;1105;64329;-78
2021/05/21 07:18:17;;;;;;;3.03;2.17;;;;;;;19.43;46.71;98806.34;124496;1100;64376;-78
2021/05/21 07:20:46;;;;;;;5.50;1.93;;;;;;;19.12;47.89;98800.64;124493;1100;64450;-78
2021/05/21 07:23:15;;;;;;;2.00;1.90;;;;;;;18.95;48.30;98797.00;124504;1104;64361;-78
2021/05/21 07:25:43;;;;;;;1.78;1.65;;;;;;;18.89;48.50;98799.52;124568;1098;64342;-78
2021/05/21 07:28:11;;;;;;;1.85;1.50;;;;;;;18.65;47.55;98791.06;124489;1104;64489;-78
2021/05/21 07:30:38;;;;;;;1.73;1.63;;;;;;;18.45;48.05;98783.34;124473;1105;64378;-78
2021/05/21 07:33:06;;;;;;;2.57;1.60;;;;;;;18.25;47.85;98782.70;124503;1098;64261;-78
2021/05/21 07:35:33;;;;;;;3.15;1.70;;;;;;;18.06;48.19;98779.19;124474;1104;64336;-77
2021/05/21 07:38:01;;;;;;;2.00;1.57;;;;;;;17.94;48.42;98780.41;124543;1098;64284;-78
2021/05/21 07:40:28;;;;;;;2.20;1.60;;;;;;;17.90;48.57;98784.41;124459;1104;64256;-78
2021/05/21 07:42:55;;;;;;;1.70;1.47;;;;;;;17.91;49.00;98781.57;124497;1104;64361;-78
2021/05/21 07:45:22;;;;;;;2.27;1.20;;;;;;;17.97;48.91;98780.09;124476;1104;64390;-77
2021/05/21 07:47:50;;;;;;;2.00;1.80;;;;;;;18.05;50.03;98771.23;124458;1104;64365;-78
2021/05/21 07:50:17;;;;;;;2.60;1.60;;;;;;;18.19;50.10;98767.96;124472;1100;64343;-77
2021/05/21 07:52:44;;;;;;;2.60;1.40;;;;;;;18.33;49.64;98764.72;124473;1105;64466;-77
2021/05/21 07:55:13;;;;;;;3.63;1.20;;;;;;;18.44;49.44;98760.91;124433;1104;64248;-77
2021/05/21 07:57:40;;;;;;;1.37;1.13;;;;;;;18.43;48.93;98773.56;124491;1104;64266;-78
2021/05/21 08:00:10;;;;;;;3.30;1.40;;;;;;;18.36;49.07;98768.95;124485;1104;64342;-78
2021/05/21 08:02:37;;;;;;;;;;;;;;;18.32;47.99;98767.56;124562;1104;64422;-78
2021/05/21 08:05:06;;;;;;;1.10;0.80;;;;;;;18.32;46.92;98767.56;124463;1104;64345;-78
2021/05/21 08:07:33;;;;;;;1.90;1.13;;;;;;;18.29;47.57;98768.72;124476;1099;64339;-78
2021/05/21 08:10:02;;;;;;;1.00;0.90;;;;;;;18.38;47.51;98775.05;124502;1104;64494;-78
2021/05/21 08:12:29;;;;;;;2.37;1.00;;;;;;;18.38;46.94;98764.25;124492;1100;64471;-78
2021/05/21 08:14:56;;;;;;;1.10;1.00;;;;;;;18.43;47.72;98761.89;124472;1104;64385;-78
2021/05/21 08:17:24;;;;;;;1.30;0.90;;;;;;;18.51;46.78;98756.58;124461;1100;64389;-78
2021/05/21 08:19:51;;;;;;;0.90;0.90;;;;;;;18.57;46.67;98755.09;124450;1100;64467;-77
2021/05/21 08:22:18;;;;;;;1.67;1.10;;;;;;;18.56;46.50;98758.77;124472;1104;64400;-77
2021/05/21 08:24:47;;;;;;;1.57;1.30;;;;;;;18.57;46.22;98752.39;124466;1104;64348;-78
2021/05/21 08:27:15;;;;;;;1.70;1.60;;;;;;;18.60;46.15;98750.20;124522;1104;64368;-77
2021/05/21 08:29:42;;;;;;;1.67;1.03;;;;;;;18.52;46.21;98752.02;124476;1100;64365;-78
2021/05/21 08:32:09;;;;;;;1.70;1.17;;;;;;;18.42;46.04;98754.81;124585;1100;64493;-77
2021/05/21 08:34:36;;;;;;;1.10;1.00;;;;;;;18.45;45.27;98749.09;124481;1105;64349;-78
2021/05/21 08:37:04;;;;;;;4.30;1.40;;;;;;;18.48;45.55;98751.47;124510;1104;64310;-78
2021/05/21 08:39:32;;;;;;;1.00;1.00;;;;;;;18.47;44.95;98747.09;124543;1104;64318;-78
2021/05/21 08:42:00;;;;;;;2.87;1.17;;;;;;;18.45;45.17;98748.26;124668;1104;64332;-78
2021/05/21 08:44:32;;;;;;;1.47;1.00;;;;;;;18.53;46.17;98745.61;124463;1104;64410;-78
2021/05/21 08:47:00;;;;;;;0.80;0.80;;;;;;;18.67;45.47;98742.33;124519;1104;64339;-77
2021/05/21 08:49:28;;;;;;;2.37;1.00;;;;;;;18.51;45.46;98734.98;124490;1098;64402;-78
2021/05/21 08:51:58;;;;;;;1.77;0.90;;;;;;;18.49;43.50;98734.30;124492;1105;64322;-77
2021/05/21 08:54:34;;;;;;;0.87;0.87;;;;;;;18.63;43.21;98732.84;124488;1104;64259;-78
2021/05/21 08:57:09;;;;;;;1.50;0.80;;;;;;;18.87;45.06;98740.25;124501;1098;64358;-78
2021/05/21 08:59:37;;;;;;;2.85;0.85;;;;;;;19.10;44.98;98728.88;124472;1104;64431;-78
2021/05/21 09:02:10;;;;;;;1.85;1.30;;;;;;;19.24;45.19;98730.94;124466;1100;64412;-77
2021/05/21 09:05:07;;;;;;;1.27;1.03;;;;;;;19.35;45.59;98725.22;124550;1104;64258;-78
2021/05/21 09:07:39;;;;;;;2.10;1.00;;;;;;;19.40;45.75;98724.73;124533;1099;64361;-78
2021/05/21 09:10:08;;;;;;;1.17;1.00;;;;;;;19.58;44.97;98716.48;124436;1104;64460;-78
2021/05/21 09:12:45;;;;;;;2.30;1.10;;;;;;;19.68;45.32;98707.23;124540;1098;64265;-78
2021/05/21 09:15:21;;;;;;;1.33;1.00;;;;;;;19.82;44.24;98708.41;124518;1104;64440;-78
2021/05/21 09:18:04;;;;;;;1.17;0.93;;;;;;;19.88;44.30;98698.78;124478;1099;64795;-80
2021/05/21 09:20:39;;;;;;;1.40;0.90;;;;;;;20.00;43.74;98692.02;124514;1104;64342;-79
2021/05/21 09:23:11;;;;;;;1.70;0.83;;;;;;;20.07;42.94;98689.49;124464;1098;64419;-77
2021/05/21 09:25:49;;;;;;;1.20;0.90;;;;;;;19.97;42.72;98692.37;124719;1098;64795;-77
2021/05/21 09:28:43;;;;;;;1.07;0.93;;;;;;;19.89;43.07;98686.97;124666;1099;64339;-77
2021/05/21 09:31:19;;;;;;;0.93;0.90;;;;;;;19.92;42.50;98671.23;124462;1105;64342;-77
2021/05/21 09:33:49;;;;;;;1.23;0.80;;;;;;;19.96;43.16;98674.45;124505;1104;64316;-78
2021/05/21 09:37:52;;;;;;;1.27;0.93;;;;;;;20.07;42.79;98674.09;125074;1091;64358;-82
2021/05/21 09:40:24;;;;;;;1.23;0.90;;;;;;;20.10;41.99;98673.75;124819;1095;64278;-83
2021/05/21 09:43:03;;;;;;;0.90;0.73;;;;;;;20.20;42.00;98661.91;124869;1096;64332;-82
2021/05/21 09:45:39;;;;;;;2.17;1.00;;;;;;;20.24;42.44;98664.08;124915;1101;64254;-83
2021/05/21 09:48:10;;;;;;;1.20;0.67;;;;;;;20.32;42.15;98653.23;124847;1101;64384;-83
2021/05/21 09:50:43;;;;;;;0.60;0.53;;;;;;;20.40;42.07;98660.48;124896;1101;64460;-82
2021/05/21 09:53:21;;;;;;;0.93;0.77;;;;;;;20.54;42.09;98659.81;124889;1101;64432;-81
2021/05/21 09:56:06;;;;;;;0.73;0.50;;;;;;;20.53;40.42;98651.82;124888;1096;64332;-80
2021/05/21 09:58:35;;;;;;;0.70;0.70;;;;;;;20.45;40.10;98646.44;124844;1101;64355;-80
2021/05/21 10:01:15;;;;;;;0.83;0.67;;;;;;;20.28;39.82;98635.67;124882;1101;64808;-80
2021/05/21 10:03:48;;;;;;;1.00;0.70;;;;;;;20.02;41.40;98644.02;124821;1101;64482;-80
2021/05/21 10:06:18;;;;;;;1.23;0.60;;;;;;;19.94;41.82;98636.75;124882;1096;64259;-81
2021/05/21 10:08:48;;;;;;;0.47;0.47;;;;;;;19.88;40.87;98623.92;124891;1101;64319;-81
2021/05/21 10:11:17;;;;;;;2.67;0.90;;;;;;;20.12;41.17;98622.19;124844;1101;64281;-81
2021/05/21 10:13:46;;;;;;;0.70;0.68;;;;;;;20.26;41.54;98607.93;124883;1096;64396;-81
2021/05/21 10:16:15;;;;;;;1.00;0.50;;;;;;;20.54;41.66;98607.54;124882;1096;64419;-80
2021/05/21 10:18:54;;;;;;;0.73;0.58;;;;;;;20.76;40.98;98600.48;124950;1101;64332;-81
2021/05/21 10:21:22;;;;;;;1.83;0.60;;;;;;;20.88;41.19;98580.11;124863;1101;64335;-81
2021/05/21 10:24:02;;;;;;;0.93;0.77;;;;;;;21.13;40.16;98579.94;124844;1101;64258;-80
2021/05/21 10:26:34;;;;;;;1.27;1.10;;;;;;;21.26;40.10;98582.88;124949;1101;64320;-81
2021/05/21 10:29:06;;;;;;;0.83;0.70;;;;;;;21.25;39.81;98576.63;124951;1096;64323;-81
2021/05/21 10:31:35;;;;;;;1.23;0.80;;;;;;;21.09;38.04;98570.47;124860;1101;64326;-81
2021/05/21 10:34:20;;;;;;;0.90;0.90;;;;;;;21.16;39.55;98572.28;124892;1101;64326;-81
2021/05/21 10:36:48;;;;;;;0.93;0.83;;;;;;;21.36;39.43;98572.64;124929;1096;64332;-81
2021/05/21 10:39:18;;;;;;;3.00;0.70;;;;;;;21.18;38.93;98564.81;124795;1101;64326;-81
2021/05/21 10:41:57;;;;;;;1.33;0.73;;;;;;;21.37;39.42;98558.05;124873;1101;64805;-81
2021/05/21 10:44:28;;;;;;;1.43;0.90;;;;;;;21.53;39.21;98562.52;124807;1101;64418;-80
2021/05/21 10:47:15;;;;;;;3.43;0.70;;;;;;;21.67;39.38;98550.88;124861;1096;64262;-82
2021/05/21 10:50:03;;;;;;;1.97;1.00;;;;;;;21.88;39.67;98544.73;124812;1101;64339;-80
2021/05/21 10:52:54;;;;;;;1.07;0.93;;;;;;;21.96;39.10;98551.94;124960;1101;64355;-81
2021/05/21 10:55:54;;;;;;;1.37;1.00;;;;;;;22.05;39.24;98545.38;124834;1096;64323;-82
2021/05/21 10:58:33;;;;;;;1.10;0.83;;;;;;;22.28;38.93;98534.45;124867;1096;64303;-81
2021/05/21 11:01:07;;;;;;;1.28;0.90;;;;;;;22.35;38.98;98534.52;124813;1101;64329;-81
2021/05/21 11:03:57;;;;;;;2.65;1.00;;;;;;;22.45;37.84;98534.23;124871;1096;64339;-82
2021/05/21 11:06:26;;;;;;;1.67;1.17;;;;;;;22.54;38.55;98533.11;124798;1101;64420;-81
2021/05/21 11:09:05;;;;;;;1.00;0.90;;;;;;;22.71;38.28;98531.83;124888;1101;64473;-81
2021/05/21 11:11:48;;;;;;;1.30;0.90;;;;;;;22.85;38.38;98523.81;124884;1101;64368;-81
2021/05/21 11:14:21;;;;;;;1.60;1.10;;;;;;;22.92;38.49;98513.87;124952;1096;64351;-81
2021/05/21 11:16:57;;;;;;;1.17;1.07;;;;;;;23.07;38.61;98506.53;124956;1096;64294;-81
2021/05/21 11:19:28;;;;;;;0.90;0.80;;;;;;;23.17;37.82;98504.33;124807;1101;64511;-80
2021/05/21 11:22:07;;;;;;;1.53;1.10;;;;;;;23.04;37.50;98498.77;124889;1096;64300;-81
2021/05/21 11:24:45;;;;;;;1.00;0.90;;;;;;;22.57;36.92;98500.97;124887;1096;64380;-82
2021/05/21 11:27:14;;;;;;;1.10;1.00;;;;;;;22.31;37.35;98500.66;124832;1101;64383;-80
2021/05/21 11:29:44;;;;;;;0.90;0.90;;;;;;;22.13;36.45;98496.42;124820;1096;64326;-80
2021/05/21 11:32:12;;;;;;;1.20;1.10;;;;;;;22.02;37.12;98490.64;124879;1096;64246;-80
2021/05/21 11:34:40;;;;;;;0.80;0.80;;;;;;;22.02;37.13;98498.79;124950;1101;64463;-81
2021/05/21 11:37:07;;;;;;;2.37;1.10;;;;;;;22.13;36.50;98484.73;124900;1096;64286;-81